ACA212 CYHZ-KATL
Flight info
| Callsign | ACA212 |
|---|---|
| Flight time | N/A |
| Altitude | 36000 |
| Route | ACADN N124A TUSKY DCT LARIE Q220 SKOWL DCT VILLS DCT NALES Q141 HYTRA DCT SBV DCT YUTEE DCT SKWKR JJEDI4 |
| Aircraft | A21N/M-SDE3FGHIRWY/LB1 |
Departure
| Time | 2025-12-29 23:06 |
|---|---|
| Airport | Halifax / Stanfield International Airport (CYHZ) |
Arrival
| Time | N/A |
|---|---|
| Airport | Hartsfield Jackson Atlanta International Airport (KATL) |
| Time | Latitude | Longitude | Altitude | Speed | Heading |
|---|---|---|---|---|---|
| 2025-12-29 22:26 | 44.88851 | -63.51429 | 443 ft | 0 kts | 239° |
| 2025-12-29 22:57 | 44.88856 | -63.51416 | 443 ft | 2 kts | 240° |
| 2025-12-29 22:58 | 44.88871 | -63.51380 | 443 ft | 2 kts | 240° |
| 2025-12-29 22:58 | 44.88878 | -63.51340 | 443 ft | 2 kts | 282° |
| 2025-12-29 22:59 | 44.88862 | -63.51307 | 443 ft | 2 kts | 329° |
| 2025-12-29 22:59 | 44.88851 | -63.51301 | 444 ft | 0 kts | 347° |
| 2025-12-29 23:00 | 44.88844 | -63.51299 | 444 ft | 0 kts | 351° |
| 2025-12-29 23:01 | 44.88846 | -63.51300 | 444 ft | 1 kts | 350° |
| 2025-12-29 23:02 | 44.88868 | -63.51305 | 443 ft | 5 kts | 351° |
| 2025-12-29 23:02 | 44.88988 | -63.51319 | 443 ft | 2 kts | 339° |
| 2025-12-29 23:03 | 44.89012 | -63.51366 | 443 ft | 8 kts | 308° |
| 2025-12-29 23:03 | 44.89084 | -63.51504 | 441 ft | 11 kts | 304° |
| 2025-12-29 23:04 | 44.89198 | -63.51738 | 431 ft | 18 kts | 304° |
| 2025-12-29 23:04 | 44.89331 | -63.51765 | 428 ft | 6 kts | 47° |
| 2025-12-29 23:05 | 44.89330 | -63.51665 | 433 ft | 26 kts | 117° |
| 2025-12-29 23:05 | 44.87991 | -63.48980 | 773 ft | 160 kts | 125° |
| 2025-12-29 23:06 | 44.86641 | -63.46516 | 1892 ft | 167 kts | 129° |
| 2025-12-29 23:06 | 44.85894 | -63.45193 | 2360 ft | 180 kts | 130° |
| 2025-12-29 23:07 | 44.83678 | -63.43453 | 3211 ft | 214 kts | 185° |
| 2025-12-29 23:07 | 44.81399 | -63.46540 | 4403 ft | 261 kts | 244° |
| 2025-12-29 23:08 | 44.80221 | -63.51167 | 6315 ft | 251 kts | 243° |
| 2025-12-29 23:08 | 44.78964 | -63.55689 | 7970 ft | 251 kts | 243° |
| 2025-12-29 23:09 | 44.77692 | -63.60276 | 9404 ft | 258 kts | 244° |
| 2025-12-29 23:09 | 44.75683 | -63.67540 | 10929 ft | 285 kts | 245° |
| 2025-12-29 23:10 | 44.74165 | -63.73025 | 11484 ft | 316 kts | 246° |
| 2025-12-29 23:11 | 44.71643 | -63.82138 | 12688 ft | 343 kts | 246° |
| 2025-12-29 23:11 | 44.69908 | -63.88368 | 13876 ft | 346 kts | 247° |
| 2025-12-29 23:12 | 44.68144 | -63.94688 | 14919 ft | 352 kts | 246° |
| 2025-12-29 23:12 | 44.66282 | -64.01038 | 16018 ft | 353 kts | 244° |
| 2025-12-29 23:13 | 44.64109 | -64.07279 | 16859 ft | 361 kts | 243° |
| 2025-12-29 23:13 | 44.60733 | -64.16962 | 17908 ft | 374 kts | 243° |
| 2025-12-29 23:14 | 44.58427 | -64.23554 | 18682 ft | 379 kts | 243° |
| 2025-12-29 23:14 | 44.57272 | -64.26849 | 19045 ft | 380 kts | 243° |
| 2025-12-29 23:15 | 44.54936 | -64.33485 | 19834 ft | 383 kts | 243° |
| 2025-12-29 23:15 | 44.52557 | -64.40235 | 20507 ft | 388 kts | 243° |
| 2025-12-29 23:16 | 44.50164 | -64.47021 | 21116 ft | 393 kts | 243° |
| 2025-12-29 23:16 | 44.47737 | -64.53876 | 21781 ft | 395 kts | 243° |
| 2025-12-29 23:17 | 44.45286 | -64.60780 | 22379 ft | 399 kts | 243° |
| 2025-12-29 23:17 | 44.42810 | -64.67741 | 22938 ft | 403 kts | 243° |
| 2025-12-29 23:18 | 44.40308 | -64.74747 | 23472 ft | 407 kts | 243° |
| 2025-12-29 23:18 | 44.37773 | -64.81827 | 24088 ft | 408 kts | 243° |
| 2025-12-29 23:19 | 44.35250 | -64.88866 | 24712 ft | 408 kts | 243° |
| 2025-12-29 23:21 | 44.25346 | -65.16323 | 28105 ft | 387 kts | 243° |
| 2025-12-29 23:23 | 44.15865 | -65.42329 | 31306 ft | 369 kts | 243° |
| 2025-12-29 23:24 | 44.07885 | -65.64047 | 33830 ft | 352 kts | 243° |